Latest Weather Observations for Bega

IDN60801

Issued at 9:32 pm EDT Sunday 7 February 2016 (issued every 30 minutes, with the page automatically refreshed every 10 minutes)

About weather observations | Map of weather stations | Latest weather observations for NSW | Other Formats
Station Details ID: 069139 Name: BEGA AWS Lat: -36.67 Lon: 149.82 Height: 41.0 m
Data from the previous 72 hours. | See also: Recent months at Bega
Date/Time
EDT
Temp
°C
App
Temp
°C
Dew
Point
Rel
Hum
%
Delta-T
°C
Wind Press
QNH
hPa
Press
MSL
hPa
Rain
since 9 am
mm
Dir
 
Spd
km/h
Gust
km/h
Spd
kts
Gust
kts
07/09:30pm 20.2 22.7 17.2 83 1.8 CALM 0 0 0 0 1018.6 1018.4 0.0
07/09:00pm 20.7 22.8 17.1 80 2.2 ENE 2 7 1 4 1018.3 1018.1 0.0
07/08:30pm 20.7 22.0 17.1 80 2.2 NE 6 11 3 6 1017.9 1017.7 0.0
07/08:00pm 21.3 22.4 17.1 77 2.6 NE 7 11 4 6 1017.5 1017.3 0.0
07/07:30pm 22.6 22.9 17.1 71 3.4 ENE 11 13 6 7 1017.2 1017.0 0.0
07/07:00pm 23.7 23.6 17.0 66 4.1 ENE 13 17 7 9 1016.6 1016.4 0.0
07/06:30pm 24.7 24.7 17.2 63 4.7 ENE 13 19 7 10 1016.3 1016.1 0.0
07/06:00pm 25.4 25.1 17.3 61 5.0 E 15 19 8 10 1016.1 1015.9 0.0
07/05:30pm 25.9 25.4 17.0 58 5.5 ENE 15 19 8 10 1016.0 1015.8 0.0
07/05:00pm 26.4 26.5 18.3 61 5.1 NE 15 20 8 11 1015.9 1015.7 0.0
07/04:30pm 26.6 26.4 18.5 61 5.2 ENE 17 20 9 11 1015.7 1015.5 0.0
07/04:00pm 26.7 26.3 18.0 59 5.5 NE 17 24 9 13 1015.9 1015.7 0.0
07/03:30pm 27.0 27.2 18.6 60 5.4 ENE 15 24 8 13 1016.0 1015.8 0.0
07/03:00pm 27.2 27.0 18.5 59 5.6 ENE 17 24 9 13 1016.0 1015.8 0.0
07/02:30pm 27.5 28.3 19.8 63 5.0 SE 15 20 8 11 1015.9 1015.7 0.0
07/02:00pm 27.0 27.6 19.4 63 4.9 SSE 15 20 8 11 1016.3 1016.1 0.0
07/01:30pm 26.6 26.6 18.2 60 5.3 ESE 15 20 8 11 1016.4 1016.2 0.0
07/01:00pm 26.7 28.3 18.3 60 5.3 NNE 7 11 4 6 1016.6 1016.4 0.0
07/12:30pm 25.7 25.7 16.3 56 5.8 E 11 19 6 10 1016.8 1016.6 0.0
07/12:00pm 25.5 25.6 16.4 57 5.6 ENE 11 17 6 9 1017.1 1016.9 0.0
07/11:30am 24.2 24.5 15.9 59 5.0 NE 9 13 5 7 1017.4 1017.2 0.0
07/11:00am 23.9 24.1 16.7 64 4.4 ENE 11 15 6 8 1017.7 1017.5 0.0
07/10:30am 22.4 23.1 16.2 68 3.8 N 7 11 4 6 1017.9 1017.7 0.0
07/10:00am 21.2 22.7 16.6 75 2.8 SE 4 7 2 4 1018.0 1017.8 0.0
07/09:30am 19.7 20.9 15.8 78 2.3 E 4 7 2 4 1018.2 1018.0 0.0
07/09:00am 17.9 18.7 15.9 88 1.2 ENE 6 9 3 5 1018.4 1018.2 0.0
07/08:30am 15.3 16.9 15.0 98 0.2 CALM 0 0 0 0 1018.5 1018.3 0.0
07/08:00am 14.1 15.0 13.9 99 0.1 NE 2 6 1 3 1018.4 1018.2 0.0
07/07:30am 13.6 14.7 13.4 99 0.1 CALM 0 0 0 0 1018.3 1018.1 0.0
07/07:00am 12.8 13.6 12.6 99 0.1 CALM 0 0 0 0 1018.3 1018.1 0.0
07/06:30am 12.2 11.7 12.0 99 0.1 NNE 6 7 3 4 1018.1 1017.9 0.0
07/06:00am 12.7 13.5 12.5 99 0.1 CALM 0 0 0 0 1017.9 1017.7 0.0
07/05:30am 12.7 13.5 12.5 99 0.1 CALM 0 0 0 0 1017.7 1017.5 0.0
07/05:00am 13.1 14.0 12.8 98 0.2 CALM 0 0 0 0 1017.6 1017.4 0.0
07/04:30am 13.6 14.6 13.3 98 0.2 CALM 0 0 0 0 1017.6 1017.4 0.0
07/04:00am 13.8 14.9 13.5 98 0.2 CALM 0 0 0 0 1017.6 1017.4 0.0
07/03:30am 14.4 15.6 13.8 96 0.3 CALM 0 0 0 0 1017.6 1017.4 0.0
07/03:00am 15.1 16.3 13.8 92 0.7 CALM 0 0 0 0 1017.7 1017.5 0.0
07/02:30am 15.5 15.6 13.9 90 0.9 NW 6 9 3 5 1018.0 1017.8 0.0
07/02:00am 16.1 17.4 14.1 88 1.1 CALM 0 0 0 0 1018.2 1018.0 0.0
07/01:30am 16.9 18.6 15.1 89 1.0 CALM 0 0 0 0 1018.5 1018.3 0.0
07/01:00am 17.4 19.0 15.0 86 1.4 CALM 0 0 0 0 1018.8 1018.6 0.0
07/12:30am 17.6 19.4 15.4 87 1.3 CALM 0 0 0 0 1019.0 1018.8 0.0
07/12:00am 17.9 19.6 15.2 84 1.6 CALM 0 0 0 0 1019.1 1018.9 0.0
 
Date/Time
EDT
Temp
°C
App
Temp
°C
Dew
Point
Rel
Hum
%
Delta-T
°C
Wind Press
QNH
hPa
Press
MSL
hPa
Rain
since 9 am
mm
Dir
 
Spd
km/h
Gust
km/h
Spd
kts
Gust
kts
06/11:30pm 17.8 18.1 15.1 84 1.6 NW 7 9 4 5 1019.2 1019.0 0.0
06/11:00pm 17.9 17.8 15.0 83 1.7 NNW 9 9 5 5 1019.3 1019.1 0.0
06/10:30pm 18.1 18.5 15.4 84 1.6 NNW 7 9 4 5 1019.4 1019.2 0.0
06/10:00pm 18.8 19.2 15.3 80 2.1 NNE 7 7 4 4 1019.2 1019.0 0.0
06/09:30pm 19.0 19.6 15.7 81 2.0 NE 7 9 4 5 1019.2 1019.0 0.0
06/09:00pm 19.2 20.2 15.3 78 2.3 NE 4 7 2 4 1019.0 1018.8 0.0
06/08:30pm 19.2 19.7 15.1 77 2.4 NE 6 9 3 5 1018.6 1018.4 0.0
06/08:00pm 19.7 18.8 14.9 74 2.8 NE 13 19 7 10 1018.5 1018.3 0.0
06/07:30pm 20.3 19.0 14.9 71 3.2 NE 15 22 8 12 1018.2 1018.0 0.0
06/07:00pm 21.1 19.1 15.0 68 3.6 ENE 19 24 10 13 1018.1 1017.9 0.0
06/06:30pm 21.8 19.8 15.4 67 3.8 ENE 20 26 11 14 1017.8 1017.6 0.0
06/06:00pm 22.9 20.9 15.0 61 4.7 ENE 19 24 10 13 1017.6 1017.4 0.0
06/05:30pm 22.5 20.7 15.4 64 4.2 E 19 24 10 13 1017.6 1017.4 0.0
06/05:00pm 22.7 20.7 15.5 64 4.3 E 20 26 11 14 1017.5 1017.3 0.0
06/04:30pm 23.8 22.3 16.3 63 4.6 E 19 24 10 13 1017.6 1017.4 0.0
06/04:00pm 23.3 21.4 15.1 60 4.9 E 19 24 10 13 1017.6 1017.4 0.0
06/03:30pm 23.8 22.4 15.6 60 4.9 E 17 24 9 13 1017.8 1017.6 0.0
06/03:00pm 25.5 24.9 16.6 58 5.5 ENE 15 20 8 11 1018.1 1017.9 0.0
06/02:30pm 25.0 24.7 16.4 59 5.3 NE 13 26 7 14 1018.4 1018.2 0.0
06/02:00pm 23.8 23.6 15.8 61 4.8 ENE 11 19 6 10 1018.7 1018.5 0.0
06/01:30pm 23.1 22.2 15.9 64 4.4 E 15 22 8 12 1019.0 1018.8 0.0
06/01:00pm 22.1 21.4 16.4 70 3.5 ENE 15 20 8 11 1019.4 1019.2 0.0
06/12:30pm 23.2 23.2 16.3 65 4.2 NNE 11 17 6 9 1019.7 1019.5 0.0
06/12:00pm 22.9 23.6 16.2 66 4.1 ENE 7 11 4 6 1020.0 1019.8 0.0
06/11:30am 22.1 23.2 17.0 73 3.1 ENE 7 13 4 7 1020.3 1020.1 0.0
06/11:00am 21.6 22.9 18.4 82 2.0 E 9 11 5 6 1020.5 1020.3 0.0
06/10:30am 21.3 23.7 18.9 86 1.5 ENE 4 7 2 4 1020.5 1020.3 0.0
06/10:00am 20.3 22.2 18.6 90 1.1 E 6 9 3 5 1020.7 1020.5 0.0
06/09:30am 19.1 21.9 17.9 93 0.7 CALM 0 6 0 3 1020.7 1020.5 0.0
06/09:00am 18.1 20.6 17.3 95 0.5 CALM 0 0 0 0 1020.7 1020.5 0.6
06/08:30am 17.8 20.3 17.3 97 0.3 CALM 0 0 0 0 1020.7 1020.5 0.6
06/08:00am 17.5 20.0 17.2 98 0.2 CALM 0 0 0 0 1020.5 1020.3 0.6
06/07:30am 17.2 19.6 17.0 99 0.1 CALM 0 0 0 0 1020.2 1020.0 0.6
06/07:00am 16.9 19.2 16.7 99 0.1 CALM 0 0 0 0 1020.0 1019.8 0.6
06/06:30am 16.8 17.9 16.6 99 0.1 SSW 6 7 3 4 1019.9 1019.7 0.6
06/06:00am 16.9 19.2 16.7 99 0.1 CALM 0 0 0 0 1019.8 1019.6 0.6
06/05:30am 16.9 19.2 16.7 99 0.1 CALM 0 6 0 3 1019.6 1019.4 0.6
06/05:00am 16.9 19.1 16.6 98 0.2 CALM 0 2 0 1 1019.5 1019.3 0.6
06/04:30am 16.9 18.8 16.7 99 0.1 NNE 2 7 1 4 1019.6 1019.4 0.6
06/04:00am 16.9 19.2 16.7 99 0.1 CALM 0 4 0 2 1019.8 1019.6 0.6
06/03:30am 16.8 19.0 16.5 98 0.2 CALM 0 6 0 3 1019.9 1019.7 0.4
06/03:00am 16.7 17.2 16.5 99 0.1 SSW 9 15 5 8 1020.1 1019.9 0.4
06/02:30am 17.1 17.7 16.8 98 0.2 SSW 9 13 5 7 1020.3 1020.1 0.4
06/02:00am 17.0 19.2 16.4 96 0.4 CALM 0 4 0 2 1020.7 1020.5 0.4
06/01:30am 17.1 18.1 16.3 95 0.5 NE 6 7 3 4 1020.9 1020.7 0.4
06/01:00am 17.3 18.7 16.3 94 0.6 SW 4 7 2 4 1021.1 1020.9 0.4
06/12:30am 17.4 19.1 16.1 92 0.8 NE 2 6 1 3 1021.4 1021.2 0.2
06/12:00am 17.4 17.7 15.9 91 0.9 SSW 9 11 5 6 1021.4 1021.2 0.2
 
Date/Time
EDT
Temp
°C
App
Temp
°C
Dew
Point
Rel
Hum
%
Delta-T
°C
Wind Press
QNH
hPa
Press
MSL
hPa
Rain
since 9 am
mm
Dir
 
Spd
km/h
Gust
km/h
Spd
kts
Gust
kts
05/11:30pm 17.9 18.2 15.9 88 1.2 SW 9 13 5 7 1021.5 1021.3 0.2
05/11:00pm 17.7 16.9 16.2 91 0.9 SW 15 24 8 13 1021.8 1021.6 0.2
05/10:30pm 18.5 18.0 15.9 85 1.5 SSW 13 20 7 11 1021.9 1021.7 0.2
05/10:00pm 18.6 18.8 15.7 83 1.7 SW 9 13 5 7 1021.9 1021.7 0.2
05/09:30pm 18.9 17.8 15.4 80 2.1 SE 15 20 8 11 1021.7 1021.5 0.2
05/09:00pm 19.2 21.2 15.9 81 2.0 CALM 0 0 0 0 1021.3 1021.1 0.2
05/08:30pm 19.4 20.2 15.9 80 2.1 SSW 6 7 3 4 1021.0 1020.8 0.2
05/08:00pm 19.7 19.5 15.6 77 2.4 SSE 11 19 6 10 1020.9 1020.7 0.2
05/07:30pm 20.1 20.2 15.5 75 2.7 SSE 9 13 5 7 1020.7 1020.5 0.2
05/07:00pm 20.2 19.5 15.4 74 2.8 SE 13 19 7 10 1020.6 1020.4 0.2
05/06:30pm 20.7 20.9 15.7 73 3.0 SE 9 13 5 7 1020.4 1020.2 0.2
05/06:00pm 21.1 19.7 15.6 71 3.3 SE 17 26 9 14 1020.4 1020.2 0.2
05/05:30pm 22.5 22.3 15.6 65 4.1 SSE 11 20 6 11 1020.4 1020.2 0.0
05/05:00pm 21.6 19.3 14.7 65 4.1 SE 20 28 11 15 1020.5 1020.3 0.0
05/04:30pm 21.9 19.2 15.7 68 3.7 ESE 24 33 13 18 1020.5 1020.3 0.0
05/04:00pm 22.0 20.0 14.9 64 4.2 SE 19 32 10 17 1020.4 1020.2 0.0
05/03:30pm 21.7 19.1 14.8 65 4.1 ESE 22 28 12 15 1020.5 1020.3 0.0
05/03:00pm 21.1 20.6 15.0 68 3.6 SSE 11 22 6 12 1020.7 1020.5 0.0
05/02:30pm 22.3 20.8 15.4 65 4.1 SSW 17 28 9 15 1020.9 1020.7 0.0
05/02:00pm 21.8 20.7 15.4 67 3.8 SSE 15 22 8 12 1021.2 1021.0 0.0
05/01:30pm 21.0 18.7 14.6 67 3.8 S 20 33 11 18 1021.4 1021.2 0.0
05/01:00pm 21.7 20.2 14.1 62 4.4 S 15 22 8 12 1021.5 1021.3 0.0
05/12:30pm 21.1 18.9 13.3 61 4.5 S 17 20 9 11 1021.7 1021.5 0.0
05/12:00pm 21.1 19.3 15.4 70 3.4 ESE 19 26 10 14 1022.0 1021.8 0.0
05/11:30am 21.2 18.6 13.1 60 4.6 SE 19 26 10 14 1022.2 1022.0 0.0
05/11:00am 21.1 19.0 13.5 62 4.4 SSW 17 28 9 15 1022.1 1021.9 0.0
05/10:30am 19.9 17.7 12.2 61 4.3 SSW 15 28 8 15 1022.0 1021.8 0.0
05/10:00am 19.9 17.6 12.9 64 4.0 SW 17 20 9 11 1021.6 1021.4 0.0
05/09:30am 19.7 18.0 13.6 68 3.5 SW 15 20 8 11 1021.6 1021.4 0.0
05/09:00am 19.2 16.7 13.4 69 3.3 SW 19 24 10 13 1021.4 1021.2 0.0
05/08:30am 18.4 17.0 13.5 73 2.8 SW 13 19 7 10 1021.2 1021.0 0.0
05/08:00am 18.1 17.0 13.0 72 2.9 WSW 11 15 6 8 1021.0 1020.8 0.0
05/07:30am 17.7 16.4 12.6 72 2.8 SW 11 13 6 7 1020.8 1020.6 0.0
05/07:00am 17.4 16.1 12.5 73 2.7 SW 11 15 6 8 1020.4 1020.2 0.0
05/06:30am 17.6 15.8 12.1 70 3.0 WSW 13 17 7 9 1020.0 1019.8 0.0
05/06:00am 17.5 15.8 12.4 72 2.8 WSW 13 20 7 11 1019.6 1019.4 0.0
05/05:30am 17.3 15.1 12.2 72 2.8 WSW 15 19 8 10 1019.3 1019.1 0.0
05/05:00am 17.2 15.5 12.3 73 2.7 WSW 13 17 7 9 1019.2 1019.0 0.0
05/04:30am 17.0 15.6 12.1 73 2.7 SW 11 15 6 8 1019.2 1019.0 0.0
05/04:00am 17.0 15.1 11.9 72 2.8 SW 13 19 7 10 1019.1 1018.9 0.0
05/03:30am 16.9 15.4 12.0 73 2.7 SW 11 19 6 10 1019.1 1018.9 0.0
05/03:00am 16.9 14.6 11.8 72 2.8 SW 15 19 8 10 1019.2 1019.0 0.0
05/02:30am 16.9 14.2 11.8 72 2.8 SW 17 22 9 12 1019.3 1019.1 0.0
05/02:00am 16.9 13.6 11.6 71 2.9 WSW 20 26 11 14 1019.5 1019.3 0.0
05/01:30am 16.9 13.5 11.4 70 3.0 WSW 20 28 11 15 1019.6 1019.4 0.0
05/01:00am 17.0 14.2 11.5 70 3.0 WSW 17 24 9 13 1019.9 1019.7 0.0
05/12:30am 17.6 14.4 11.4 67 3.4 SW 19 26 10 14 1019.9 1019.7 0.0
05/12:00am 18.0 15.3 11.6 66 3.5 SW 17 20 9 11 1020.0 1019.8 0.0
 
Date/Time
EDT
Temp
°C
App
Temp
°C
Dew
Point
Rel
Hum
%
Delta-T
°C
Wind Press
QNH
hPa
Press
MSL
hPa
Rain
since 9 am
mm
Dir
 
Spd
km/h
Gust
km/h
Spd
kts
Gust
kts
04/11:30pm 18.0 15.3 11.6 66 3.5 SW 17 22 9 12 1020.0 1019.8 0.0
04/11:00pm 18.1 14.7 11.4 65 3.6 WSW 20 24 11 13 1020.1 1019.9 0.0
04/10:30pm 18.1 14.8 11.0 63 3.8 SW 19 26 10 14 1020.4 1020.2 0.0
04/10:00pm 18.2 14.7 10.8 62 4.0 SW 20 28 11 15 1020.3 1020.1 0.0

Other Formats:

Comma delimited format used in spreadsheet applications
http://www.bom.gov.au/fwo/IDN60801/IDN60801.95931.axf

JavaScript Object Notation format (JSON) in row-major order
http://www.bom.gov.au/fwo/IDN60801/IDN60801.95931.json